Time;durP1;ratioP1;P1;durP2;ratioP2;P2;SDS_P1;SDS_P2;PMS_P1;PMS_P2;Temp;Humidity;BMP_temperature;BMP_pressure;BME280_temperature;BME280_humidity;BME280_pressure;Samples;Min_cycle;Max_cycle;Signal;HPM_P1;HPM_P2
2024/01/23 00:00:30;;;;;;;97.93;37.10;;;;;;;-6.42;92.83;62223.09;5052887;28;20199;-55
2024/01/23 00:02:55;;;;;;;98.23;40.53;;;;;;;-6.54;93.95;62213.16;5052353;28;20564;-55
2024/01/23 00:05:21;;;;;;;104.07;39.77;;;;;;;-6.67;94.36;62199.22;5035031;28;20194;-51
2024/01/23 00:07:47;;;;;;;108.37;39.33;;;;;;;-6.53;93.40;62211.78;5049890;28;20300;-52
2024/01/23 00:10:12;;;;;;;94.57;40.70;;;;;;;-6.58;95.09;62205.88;5052403;28;20596;-52
2024/01/23 00:12:38;;;;;;;97.27;41.10;;;;;;;-6.57;94.35;62207.50;5052247;28;20224;-54
2024/01/23 00:15:04;;;;;;;93.63;41.57;;;;;;;-6.55;95.55;62212.09;5051135;28;20557;-54
2024/01/23 00:17:29;;;;;;;101.80;38.90;;;;;;;-6.13;91.64;62251.78;5052393;28;20250;-53
2024/01/23 00:19:56;;;;;;;94.47;39.13;;;;;;;-6.18;89.46;62243.97;5052259;28;20225;-53
2024/01/23 00:22:22;;;;;;;96.13;40.53;;;;;;;-6.32;92.95;62234.34;5052028;28;20305;-52
2024/01/23 00:24:48;;;;;;;97.50;38.87;;;;;;;-6.27;93.99;62239.19;5034214;28;20282;-54
2024/01/23 00:27:13;;;;;;;107.73;42.03;;;;;;;-6.12;94.44;62255.31;5052221;28;20293;-54
2024/01/23 00:29:39;;;;;;;99.33;40.23;;;;;;;-6.18;91.90;62249.41;5052028;28;20275;-53
2024/01/23 00:32:05;;;;;;;99.87;39.57;;;;;;;-6.27;92.38;62239.19;5050858;28;20709;-54
2024/01/23 00:34:30;;;;;;;94.17;41.73;;;;;;;-6.16;93.23;62251.03;5052112;28;20194;-53
2024/01/23 00:36:58;;;;;;;88.47;37.63;;;;;;;-5.97;90.86;62273.88;5051869;28;20592;-52
2024/01/23 00:39:24;;;;;;;94.20;36.53;;;;;;;-6.04;89.04;62263.94;5051790;28;20213;-54
2024/01/23 00:41:50;;;;;;;97.03;38.17;;;;;;;-6.01;88.15;62267.13;5034336;28;20221;-53
2024/01/23 00:44:16;;;;;;;98.20;36.43;;;;;;;-5.93;86.73;62275.75;5051764;28;20192;-53
2024/01/23 00:46:41;;;;;;;92.13;37.47;;;;;;;-6.03;85.71;62265.53;5052236;28;20203;-53
2024/01/23 00:49:07;;;;;;;89.97;36.50;;;;;;;-6.03;86.77;62267.44;5051767;28;20195;-52
2024/01/23 00:51:32;;;;;;;81.67;34.43;;;;;;;-6.09;87.29;62256.09;5051868;28;20287;-53
2024/01/23 00:54:00;;;;;;;87.33;33.17;;;;;;;-6.34;87.70;62232.19;5051725;28;20202;-53
2024/01/23 00:56:26;;;;;;;85.73;33.93;;;;;;;-6.41;89.97;62224.16;5051756;28;20203;-53
2024/01/23 00:58:51;;;;;;;80.67;33.73;;;;;;;-6.32;89.57;62233.84;5051426;28;20304;-55
2024/01/23 01:01:17;;;;;;;72.10;28.50;;;;;;;-6.12;87.83;62255.84;5051959;28;20198;-53
2024/01/23 01:03:43;;;;;;;78.27;30.70;;;;;;;-6.27;86.94;62234.28;5033517;28;20254;-52
2024/01/23 01:06:08;;;;;;;70.17;31.13;;;;;;;-6.40;89.59;62228.19;5033700;28;20193;-54
2024/01/23 01:08:33;;;;;;;75.97;35.60;;;;;;;-6.47;92.75;62215.25;5051683;28;20244;-52
2024/01/23 01:10:59;;;;;;;77.20;33.33;;;;;;;-6.41;92.01;62221.69;5033738;28;20604;-55
2024/01/23 01:13:25;;;;;;;85.73;34.90;;;;;;;-6.41;97.52;62227.13;5051491;28;20221;-52
2024/01/23 01:15:51;;;;;;;75.20;33.73;;;;;;;-6.42;97.34;62223.09;5033456;28;20237;-54
2024/01/23 01:18:17;;;;;;;83.50;35.27;;;;;;;-6.27;93.82;62239.75;5051152;28;20242;-54
2024/01/23 01:20:44;;;;;;;81.83;34.87;;;;;;;-6.31;90.94;62230.53;5033380;28;20660;-57
2024/01/23 01:23:10;;;;;;;70.03;30.37;;;;;;;-5.97;88.75;62271.44;5051319;28;20217;-53
2024/01/23 01:25:36;;;;;;;70.70;29.50;;;;;;;-6.11;86.66;62256.94;5050940;28;20236;-53
2024/01/23 01:28:02;;;;;;;77.20;28.00;;;;;;;-6.32;88.88;62231.38;5051185;28;20729;-51
2024/01/23 01:30:29;;;;;;;80.00;28.80;;;;;;;-6.59;93.11;62207.81;5051393;28;20194;-53
2024/01/23 01:32:55;;;;;;;62.87;27.83;;;;;;;-6.59;92.99;62204.81;5050976;28;20220;-52
2024/01/23 01:38:42;;;;;;;78.60;28.73;;;;;;;-6.81;90.32;62183.63;5050890;28;20319;-52
2024/01/23 01:41:08;;;;;;;69.83;26.43;;;;;;;-7.03;90.54;62158.63;5051384;28;20318;-54
2024/01/23 01:43:33;;;;;;;80.57;30.60;;;;;;;-7.09;92.24;62154.63;5051146;28;20345;-55
2024/01/23 01:46:11;;;;;;;73.10;30.07;;;;;;;-7.16;95.89;62144.13;5033282;28;20194;-53
2024/01/23 01:48:40;;;;;;;78.17;29.63;;;;;;;-7.15;91.77;62143.28;5050959;28;20618;-54
2024/01/23 01:51:06;;;;;;;74.10;26.73;;;;;;;-7.32;93.81;62126.94;5051271;28;20193;-52
2024/01/23 01:53:33;;;;;;;78.30;29.33;;;;;;;-7.35;96.12;62124.25;5050820;28;20213;-54
2024/01/23 01:56:00;;;;;;;73.67;29.10;;;;;;;-7.26;99.29;62133.41;5032991;28;20192;-52
2024/01/23 01:58:28;;;;;;;72.80;29.23;;;;;;;-7.22;98.80;62137.69;5050838;28;20287;-51
2024/01/23 02:00:54;;;;;;;76.30;30.93;;;;;;;-7.02;97.09;62157.25;5050678;28;20580;-55
2024/01/23 02:03:23;;;;;;;78.17;28.93;;;;;;;-6.79;91.35;62186.31;5050758;28;20213;-52
2024/01/23 02:05:50;;;;;;;68.80;27.93;;;;;;;-6.77;95.16;62186.03;5032798;28;20189;-52
2024/01/23 02:08:16;;;;;;;78.33;30.07;;;;;;;-6.80;96.16;62182.78;5032827;28;20214;-54
2024/01/23 02:10:43;;;;;;;78.57;30.63;;;;;;;-6.74;93.13;62188.69;5050569;28;20193;-53
2024/01/23 02:13:09;;;;;;;73.47;29.10;;;;;;;-6.45;87.60;62219.84;5050700;28;20210;-56
2024/01/23 02:15:35;;;;;;;88.53;30.10;;;;;;;-6.62;85.57;62202.13;5032934;28;20251;-52
2024/01/23 02:18:01;;;;;;;87.83;32.17;;;;;;;-6.92;93.78;62170.44;5050441;28;20219;-52
2024/01/23 02:20:27;;;;;;;77.43;28.77;;;;;;;-6.94;89.16;62165.31;5050663;28;20198;-51
2024/01/23 02:22:55;;;;;;;80.50;30.83;;;;;;;-7.07;93.06;62154.31;5050500;28;20566;-53
2024/01/23 02:25:20;;;;;;;81.93;32.60;;;;;;;-7.20;93.23;62142.28;5050530;28;20194;-54
2024/01/23 02:27:46;;;;;;;73.67;29.37;;;;;;;-7.18;90.89;62137.09;5050324;28;20245;-52
2024/01/23 02:30:12;;;;;;;82.47;30.30;;;;;;;-6.90;88.78;62170.13;5050380;28;20699;-51
2024/01/23 02:32:43;;;;;;;80.73;30.63;;;;;;;-6.98;90.02;62161.00;5050320;28;20209;-53
2024/01/23 02:35:09;;;;;;;75.07;29.13;;;;;;;-7.01;88.72;62160.75;5050445;28;20194;-52
2024/01/23 02:37:34;;;;;;;69.80;28.70;;;;;;;-7.03;90.03;62158.63;5033777;28;20247;-53
2024/01/23 02:40:00;;;;;;;71.13;27.70;;;;;;;-7.20;88.06;62140.38;5035930;28;20210;-53
2024/01/23 02:42:26;;;;;;;74.37;30.40;;;;;;;-7.43;91.37;62113.22;5053606;28;20218;-51
2024/01/23 02:45:00;;;;;;;80.77;27.93;;;;;;;-7.46;91.04;62114.38;5053491;28;20185;-52
2024/01/23 02:47:26;;;;;;;78.63;30.10;;;;;;;-7.61;92.40;62096.34;5053424;28;20315;-52
2024/01/23 02:49:51;;;;;;;68.03;27.23;;;;;;;-7.59;94.07;62102.88;5053508;28;20185;-53
2024/01/23 02:52:17;;;;;;;78.77;28.73;;;;;;;-7.53;92.53;62104.44;5053433;28;20283;-53
2024/01/23 02:54:43;;;;;;;82.20;30.27;;;;;;;-7.30;91.38;62129.09;5053445;28;20199;-52
2024/01/23 02:57:09;;;;;;;73.53;29.77;;;;;;;-7.27;91.12;62132.84;5053344;28;20201;-54
2024/01/23 02:59:34;;;;;;;62.03;26.90;;;;;;;-7.28;90.72;62131.78;5053559;28;20576;-53
2024/01/23 03:02:00;;;;;;;70.67;28.10;;;;;;;-7.31;91.96;62128.03;5035695;28;20231;-54
2024/01/23 03:04:26;;;;;;;82.07;31.93;;;;;;;-7.23;91.54;62136.63;5053472;28;20276;-56
2024/01/23 03:06:51;;;;;;;76.87;30.47;;;;;;;-7.23;92.11;62139.06;5035439;28;20217;-53
2024/01/23 03:09:18;;;;;;;83.47;28.80;;;;;;;-7.16;90.89;62142.22;5053457;28;20179;-52
2024/01/23 03:11:44;;;;;;;79.30;31.13;;;;;;;-7.26;92.67;62133.41;5053306;28;20190;-54
2024/01/23 03:14:11;;;;;;;83.00;30.20;;;;;;;-7.25;92.37;62137.44;5053145;28;20186;-52
2024/01/23 03:16:37;;;;;;;79.53;30.50;;;;;;;-7.19;92.39;62143.38;5053644;28;20190;-53
2024/01/23 03:19:03;;;;;;;100.70;37.87;;;;;;;-7.41;94.01;62120.28;5053181;28;20575;-53
2024/01/23 03:21:28;;;;;;;88.83;34.33;;;;;;;-7.37;94.64;62121.59;5035340;28;20194;-53
2024/01/23 03:23:54;;;;;;;94.23;32.60;;;;;;;-7.41;96.59;62117.81;5035459;28;20243;-53
2024/01/23 03:26:20;;;;;;;98.37;33.50;;;;;;;-7.27;95.35;62130.41;5053123;28;20276;-53
2024/01/23 03:28:46;;;;;;;84.70;33.20;;;;;;;-7.25;95.01;62135.00;5052936;28;20215;-53
2024/01/23 03:31:11;;;;;;;80.63;29.70;;;;;;;-7.33;94.70;62126.41;5053256;28;20273;-51
2024/01/23 03:33:37;;;;;;;73.47;28.37;;;;;;;-7.16;95.82;62144.66;5052843;28;20242;-54
2024/01/23 03:36:03;;;;;;;73.53;30.03;;;;;;;-7.40;96.28;62118.91;5052956;28;20201;-54
2024/01/23 03:38:29;;;;;;;70.63;26.33;;;;;;;-7.29;95.68;62128.25;5052732;28;20217;-53
2024/01/23 03:40:54;;;;;;;75.13;30.77;;;;;;;-7.26;96.71;62133.94;5053062;28;20270;-54
2024/01/23 03:43:20;;;;;;;69.50;27.27;;;;;;;-7.33;92.16;62123.97;5052536;28;20694;-54
2024/01/23 03:45:45;;;;;;;62.90;28.50;;;;;;;-7.39;93.61;62119.97;5052950;28;20189;-59
2024/01/23 03:48:11;;;;;;;69.77;28.23;;;;;;;-7.39;91.30;62119.97;5052358;28;20284;-55
2024/01/23 03:50:36;;;;;;;79.67;29.53;;;;;;;-7.47;89.22;62111.38;5052585;28;20193;-55
2024/01/23 03:53:02;;;;;;;87.13;32.30;;;;;;;-7.69;92.39;62087.78;5052553;28;20224;-57
2024/01/23 03:55:27;;;;;;;80.53;32.83;;;;;;;-7.51;89.27;62104.66;5052585;28;20224;-53
2024/01/23 03:57:53;;;;;;;72.43;29.60;;;;;;;-7.96;89.43;62058.81;5052402;28;20211;-52
2024/01/23 04:00:19;;;;;;;77.13;28.47;;;;;;;-8.08;91.96;62045.94;5052240;28;20197;-51
2024/01/23 04:02:45;;;;;;;86.10;32.70;;;;;;;-8.09;93.21;62045.41;5034194;28;20208;-52
2024/01/23 04:05:10;;;;;;;84.67;31.27;;;;;;;-7.95;90.62;62059.88;5051220;28;20723;-51
2024/01/23 04:07:36;;;;;;;82.27;33.73;;;;;;;-8.05;91.76;62049.16;5052222;28;20210;-52
2024/01/23 04:10:05;;;;;;;95.57;35.13;;;;;;;-7.93;91.21;62062.03;5052282;28;20702;-54
2024/01/23 04:12:31;;;;;;;84.27;32.63;;;;;;;-8.00;91.83;62054.53;5052207;28;20731;-53
2024/01/23 04:14:58;;;;;;;85.70;31.37;;;;;;;-7.97;89.70;62060.19;5052317;28;20201;-54
2024/01/23 04:17:25;;;;;;;84.07;32.67;;;;;;;-8.04;89.20;62052.69;5034681;28;20624;-51
2024/01/23 04:19:50;;;;;;;79.23;32.43;;;;;;;-7.83;87.59;62073.31;5052296;28;20303;-54
2024/01/23 04:22:16;;;;;;;89.47;31.73;;;;;;;-7.94;90.11;62061.50;5051947;28;20316;-54
2024/01/23 04:24:41;;;;;;;86.57;31.57;;;;;;;-7.82;87.27;62073.84;5052024;28;20204;-54
2024/01/23 04:27:07;;;;;;;83.60;32.73;;;;;;;-7.61;84.25;62095.84;5034207;28;20702;-53
2024/01/23 04:29:33;;;;;;;71.33;29.60;;;;;;;-7.61;86.94;62095.84;5052240;28;20201;-53
2024/01/23 04:31:59;;;;;;;87.43;31.17;;;;;;;-7.77;88.13;62079.75;5034290;28;20224;-52
2024/01/23 04:34:24;;;;;;;79.27;29.53;;;;;;;-7.87;88.71;62069.00;5051935;28;20271;-53
2024/01/23 04:36:50;;;;;;;87.57;29.97;;;;;;;-7.71;84.96;62088.63;5052215;28;20220;-53
2024/01/23 04:39:18;;;;;;;80.03;30.77;;;;;;;-7.82;87.93;62073.84;5051815;28;20709;-53
2024/01/23 04:41:44;;;;;;;84.70;31.60;;;;;;;-7.74;89.11;62084.88;5051360;28;20230;-52
2024/01/23 04:44:10;;;;;;;79.53;31.47;;;;;;;-7.77;89.70;62079.75;5031460;28;20201;-52
2024/01/23 04:46:36;;;;;;;73.17;30.83;;;;;;;-7.56;91.38;62101.75;5030043;28;20189;-54
2024/01/23 04:49:02;;;;;;;83.07;30.33;;;;;;;-7.66;89.43;62093.44;5050061;28;20197;-53
2024/01/23 04:51:29;;;;;;;80.77;31.57;;;;;;;-7.83;91.20;62072.75;5052251;28;20197;-63
2024/01/23 04:53:55;;;;;;;87.57;33.07;;;;;;;-8.10;93.70;62041.88;5051625;28;20185;-52
2024/01/23 04:56:21;;;;;;;84.30;30.83;;;;;;;-8.08;95.85;62046.47;5051763;28;20196;-52
2024/01/23 04:58:48;;;;;;;84.07;29.70;;;;;;;-7.97;97.28;62060.72;5051621;28;20216;-54
2024/01/23 05:01:14;;;;;;;78.73;31.27;;;;;;;-7.90;96.82;62065.25;5050671;28;20193;-52
2024/01/23 05:03:40;;;;;;;82.77;30.53;;;;;;;-8.94;99.88;61952.41;5051546;28;20209;-56
2024/01/23 05:06:05;;;;;;;78.67;30.53;;;;;;;-9.38;100.00;61907.72;5051399;28;20724;-53
2024/01/23 05:08:31;;;;;;;83.83;30.13;;;;;;;-9.51;100.00;61893.78;5051240;28;20240;-52
2024/01/23 05:10:57;;;;;;;74.27;30.77;;;;;;;-9.71;100.00;61872.94;5033756;28;20227;-55
2024/01/23 05:13:23;;;;;;;87.57;32.00;;;;;;;-9.39;100.00;61906.66;5051316;28;20288;-55
2024/01/23 05:15:49;;;;;;;79.00;30.40;;;;;;;-9.06;100.00;61936.59;5033739;28;20193;-53
2024/01/23 05:18:15;;;;;;;74.90;29.03;;;;;;;-8.73;100.00;61976.81;5051069;28;20213;-55
2024/01/23 05:20:40;;;;;;;77.20;30.23;;;;;;;-8.26;100.00;62024.75;5050962;28;20201;-53
2024/01/23 05:23:07;;;;;;;77.33;31.30;;;;;;;-8.13;100.00;62040.59;5051160;28;20246;-54
2024/01/23 05:25:33;;;;;;;82.27;30.33;;;;;;;-8.01;100.00;62051.56;5051027;28;20222;-54
2024/01/23 05:27:59;;;;;;;72.87;30.27;;;;;;;-7.96;100.00;62056.38;5049986;28;20228;-53
2024/01/23 05:30:25;;;;;;;84.50;31.60;;;;;;;-7.80;100.00;62073.53;5050823;28;20732;-52
2024/01/23 05:32:51;;;;;;;82.10;29.60;;;;;;;-7.69;98.40;62087.78;5050940;28;20213;-54
2024/01/23 05:35:16;;;;;;;80.10;31.13;;;;;;;-7.60;96.50;62096.91;5050911;28;20194;-53
2024/01/23 05:37:44;;;;;;;65.93;28.93;;;;;;;-7.60;99.25;62096.91;5050699;28;20585;-53
2024/01/23 05:40:12;;;;;;;80.67;31.67;;;;;;;-7.49;99.53;62109.25;5032944;28;20298;-55
2024/01/23 05:42:38;;;;;;;82.03;31.23;;;;;;;-7.47;99.24;62108.94;5050698;28;20243;-54
2024/01/23 05:45:04;;;;;;;82.37;30.37;;;;;;;-7.21;95.22;62141.75;5049579;28;20205;-54
2024/01/23 05:50:14;;;;;;;93.53;35.27;;;;;;;-7.03;92.69;62158.63;5051104;28;20203;-53
2024/01/23 05:52:39;;;;;;;78.17;32.40;;;;;;;-7.10;91.67;62148.66;5050495;28;20210;-54
2024/01/23 05:55:05;;;;;;;86.20;32.87;;;;;;;-6.95;91.82;62166.69;5050683;28;20190;-54
2024/01/23 05:57:31;;;;;;;73.33;30.80;;;;;;;-7.22;92.73;62135.25;5050555;28;20221;-52
2024/01/23 06:00:06;;;;;;;68.03;28.77;;;;;;;-7.24;91.01;62136.09;5050375;28;20217;-53
2024/01/23 06:02:31;;;;;;;75.83;28.00;;;;;;;-7.12;91.13;62148.41;5050482;28;20224;-54
2024/01/23 06:04:58;;;;;;;68.03;29.07;;;;;;;-7.35;92.92;62119.38;5050287;28;20729;-58
2024/01/23 06:07:25;;;;;;;74.53;29.87;;;;;;;-7.30;90.19;62126.66;5050415;28;20291;-54
2024/01/23 06:09:51;;;;;;;79.03;32.23;;;;;;;-7.22;88.78;62138.22;5050501;28;20203;-54
2024/01/23 06:12:16;;;;;;;68.27;26.97;;;;;;;-7.44;92.67;62114.06;5052999;28;20292;-54
2024/01/23 06:14:42;;;;;;;72.57;29.47;;;;;;;-7.38;92.21;62118.06;5053740;28;20194;-54
2024/01/23 06:17:07;;;;;;;77.87;29.90;;;;;;;-7.20;88.98;62142.28;5053989;28;20220;-53
2024/01/23 06:19:33;;;;;;;80.60;30.83;;;;;;;-7.25;88.36;62132.03;5053764;28;20217;-54
2024/01/23 06:21:58;;;;;;;77.73;30.80;;;;;;;-7.32;91.10;62125.06;5053703;28;20647;-57
2024/01/23 06:24:24;;;;;;;65.10;30.57;;;;;;;-7.39;93.63;62119.44;5053930;28;20189;-54
2024/01/23 06:26:50;;;;;;;88.13;31.63;;;;;;;-7.42;98.07;62116.75;5053863;28;20218;-55
2024/01/23 06:29:15;;;;;;;77.57;31.63;;;;;;;-8.53;100.00;61998.25;5053540;28;20201;-55
2024/01/23 06:31:41;;;;;;;86.67;32.77;;;;;;;-8.44;100.00;62004.94;5033918;28;20201;-55
2024/01/23 06:34:07;;;;;;;88.93;33.40;;;;;;;-8.25;100.00;62027.72;5051279;28;20204;-54
2024/01/23 06:36:36;;;;;;;85.53;33.77;;;;;;;-8.03;100.00;62051.84;5035494;28;20581;-55
2024/01/23 06:39:02;;;;;;;89.20;34.40;;;;;;;-7.86;100.00;62070.06;5053455;28;20248;-54
2024/01/23 06:41:27;;;;;;;89.87;34.17;;;;;;;-7.59;100.00;62098.50;5035658;28;20233;-53
2024/01/23 06:43:52;;;;;;;97.40;34.47;;;;;;;-7.41;100.00;62117.31;5053463;28;20214;-52
2024/01/23 06:46:20;;;;;;;90.73;36.20;;;;;;;-7.32;100.00;62125.06;5053494;28;20330;-53
2024/01/23 06:48:45;;;;;;;104.77;37.27;;;;;;;-7.25;100.00;62134.47;5053118;28;20252;-55
2024/01/23 06:51:11;;;;;;;92.00;35.63;;;;;;;-7.13;100.00;62147.88;5036100;28;20238;-57
2024/01/23 06:53:37;;;;;;;98.97;34.00;;;;;;;-7.09;100.00;62147.28;5053323;28;20660;-52
2024/01/23 06:56:03;;;;;;;100.33;33.77;;;;;;;-7.01;100.00;62160.75;5053327;28;20201;-52
2024/01/23 06:58:29;;;;;;;100.33;35.70;;;;;;;-6.95;100.00;62167.22;5053216;28;20590;-53
2024/01/23 07:00:54;;;;;;;97.03;34.00;;;;;;;-6.96;100.00;62165.59;5053162;28;20193;-54
2024/01/23 07:03:20;;;;;;;105.83;34.33;;;;;;;-6.78;100.00;62184.38;5053096;28;20724;-52
2024/01/23 07:05:45;;;;;;;88.03;32.60;;;;;;;-6.71;100.00;62192.47;5052958;28;20190;-55
2024/01/23 07:08:11;;;;;;;109.03;36.37;;;;;;;-6.48;99.47;62214.16;5052919;28;20344;-54
2024/01/23 07:10:37;;;;;;;90.97;34.70;;;;;;;-6.27;99.60;62237.28;5052992;28;20242;-55
2024/01/23 07:13:02;;;;;;;93.77;34.10;;;;;;;-6.07;100.00;62260.69;5035044;28;20256;-52
2024/01/23 07:15:28;;;;;;;83.73;33.43;;;;;;;-5.81;95.06;62286.16;5035091;28;20208;-53
2024/01/23 07:17:54;;;;;;;99.43;34.80;;;;;;;-5.92;96.42;62276.81;5078203;23;20256;-53
2024/01/23 07:20:20;;;;;;;89.33;35.27;;;;;;;-5.68;95.63;62300.16;5055367;28;20671;-55
2024/01/23 07:22:45;;;;;;;95.47;34.97;;;;;;;-5.91;96.15;62275.44;5078024;22;20225;-54
2024/01/23 07:25:11;;;;;;;100.83;36.57;;;;;;;-6.09;99.52;62259.09;5072868;28;20217;-54
2024/01/23 07:27:37;;;;;;;100.63;36.53;;;;;;;-5.86;98.89;62277.84;5055024;28;20251;-53
2024/01/23 07:30:02;;;;;;;98.30;35.20;;;;;;;-5.83;99.75;62286.47;5072639;28;20273;-52
2024/01/23 07:32:28;;;;;;;88.83;35.77;;;;;;;-5.54;94.44;62312.75;5055056;28;20571;-54
2024/01/23 07:34:54;;;;;;;91.03;36.63;;;;;;;-5.30;92.85;62338.59;5072646;28;20193;-58
2024/01/23 07:37:20;;;;;;;96.03;37.83;;;;;;;-5.14;90.27;62360.69;5072495;28;20590;-53
2024/01/23 07:39:45;;;;;;;90.63;35.57;;;;;;;-4.89;86.63;62386.53;5072713;28;20241;-53
2024/01/23 07:42:11;;;;;;;95.87;37.67;;;;;;;-4.87;84.28;62388.69;5072448;28;20228;-53
2024/01/23 07:44:39;;;;;;;98.77;37.27;;;;;;;-4.69;83.87;62405.59;5072626;28;20670;-56
2024/01/23 07:47:06;;;;;;;91.73;38.13;;;;;;;-4.67;89.18;62410.22;5064606;22;20214;-57
2024/01/23 07:49:32;;;;;;;97.03;41.33;;;;;;;-5.23;93.90;62351.00;5072463;28;20203;-56
2024/01/23 07:51:57;;;;;;;102.60;39.27;;;;;;;-4.83;94.10;62388.63;5072071;28;20203;-55
2024/01/23 07:54:23;;;;;;;108.80;38.97;;;;;;;-4.31;90.40;62446.53;5072429;28;20213;-52
2024/01/23 07:56:53;;;;;;;102.27;40.03;;;;;;;-3.98;86.53;62482.06;5071974;28;20212;-52
2024/01/23 07:59:20;;;;;;;83.83;38.63;;;;;;;-3.77;86.36;62504.72;5072086;28;20212;-55
2024/01/23 08:01:45;;;;;;;99.80;39.33;;;;;;;-3.72;84.25;62512.56;5071977;28;20204;-59
2024/01/23 08:04:11;;;;;;;112.07;42.07;;;;;;;-4.22;91.00;62458.66;5072109;28;20690;-54
2024/01/23 08:06:38;;;;;;;104.63;40.60;;;;;;;-3.53;86.72;62533.03;5071835;28;20194;-53
2024/01/23 08:09:05;;;;;;;101.90;39.93;;;;;;;-3.12;82.98;62573.72;5071870;28;20248;-53
2024/01/23 08:11:31;;;;;;;108.20;39.70;;;;;;;-3.00;81.09;62587.19;5071819;28;20179;-54
2024/01/23 08:13:57;;;;;;;110.83;42.00;;;;;;;-3.08;80.49;62578.03;5071944;28;20632;-55
2024/01/23 08:16:22;;;;;;;112.30;42.57;;;;;;;-3.02;84.47;62587.50;5071948;28;20213;-52
2024/01/23 08:18:48;;;;;;;114.30;45.20;;;;;;;-2.61;78.79;62631.72;5071598;28;20213;-53
2024/01/23 08:21:13;;;;;;;118.23;42.83;;;;;;;-2.76;78.90;62612.53;5072091;28;20248;-55
2024/01/23 08:23:39;;;;;;;112.20;43.67;;;;;;;-2.69;77.80;62622.56;5071911;28;20224;-54
2024/01/23 08:26:04;;;;;;;121.13;43.70;;;;;;;-2.71;77.35;62617.94;5053970;28;20244;-52
2024/01/23 08:28:30;;;;;;;105.43;43.37;;;;;;;-2.81;76.94;62610.16;5071930;28;20244;-52
2024/01/23 08:30:57;;;;;;;105.80;41.40;;;;;;;-2.50;77.93;62640.06;5071714;28;20195;-54
2024/01/23 08:33:22;;;;;;;104.63;42.30;;;;;;;-2.27;73.29;62667.91;5071693;28;20235;-53
2024/01/23 08:35:48;;;;;;;90.93;39.00;;;;;;;-2.17;72.67;62678.16;5070488;28;20553;-52
2024/01/23 08:38:14;;;;;;;93.57;39.13;;;;;;;-2.18;72.84;62674.63;5053541;28;20667;-52
2024/01/23 08:40:41;;;;;;;108.13;40.87;;;;;;;-2.06;70.15;62687.56;5071623;28;20186;-53
2024/01/23 08:43:08;;;;;;;102.97;38.87;;;;;;;-2.12;70.96;62684.09;5070281;28;20208;-51
2024/01/23 08:45:33;;;;;;;107.83;42.67;;;;;;;-2.03;70.31;62691.34;5071569;28;20196;-52
2024/01/23 08:47:59;;;;;;;105.93;39.43;;;;;;;-1.58;67.74;62739.41;5071395;28;20200;-54
2024/01/23 08:50:25;;;;;;;109.00;42.20;;;;;;;-1.57;66.99;62744.88;5053683;28;20189;-53
2024/01/23 08:52:50;;;;;;;114.37;43.23;;;;;;;-1.16;65.82;62786.72;5071336;28;20209;-51
2024/01/23 08:55:18;;;;;;;114.53;43.50;;;;;;;-0.86;65.58;62816.69;5071367;28;20196;-54
2024/01/23 08:57:44;;;;;;;109.80;44.70;;;;;;;-0.61;64.29;62841.28;5053095;28;20387;-53
2024/01/23 09:00:12;;;;;;;112.57;47.07;;;;;;;-0.45;63.20;62861.06;5071309;28;20299;-56
2024/01/23 09:02:37;;;;;;;121.20;46.43;;;;;;;-0.07;63.23;62899.69;5070094;28;20203;-54
2024/01/23 09:05:05;;;;;;;109.93;47.70;;;;;;;0.03;62.53;62911.91;5071258;28;20191;-54
2024/01/23 09:07:31;;;;;;;107.93;45.80;;;;;;;0.38;60.38;62952.28;5071453;28;20206;-54
2024/01/23 09:09:56;;;;;;;105.17;46.07;;;;;;;0.69;60.16;62985.84;5071207;28;20203;-54
2024/01/23 09:12:22;;;;;;;120.60;47.40;;;;;;;1.03;60.59;63022.66;5071081;28;20288;-53
2024/01/23 09:14:48;;;;;;;112.60;47.43;;;;;;;1.06;58.15;63022.91;5071039;28;20224;-53
2024/01/23 09:17:14;;;;;;;129.63;49.93;;;;;;;0.51;58.43;62966.88;5070970;28;20199;-54
2024/01/23 09:19:40;;;;;;;114.30;46.43;;;;;;;0.47;59.51;62959.53;5070905;28;20231;-58
2024/01/23 09:22:07;;;;;;;118.67;48.53;;;;;;;0.97;58.40;63016.16;5070976;28;20288;-54
2024/01/23 09:24:33;;;;;;;123.33;49.00;;;;;;;1.43;60.48;63058.59;5071179;28;20236;-53
2024/01/23 09:27:01;;;;;;;117.80;48.50;;;;;;;1.87;55.63;63110.19;5052866;28;20200;-52
2024/01/23 09:29:27;;;;;;;111.57;45.87;;;;;;;1.83;58.27;63108.88;5070971;28;20181;-52
2024/01/23 09:31:54;;;;;;;114.27;46.47;;;;;;;2.20;56.88;63148.47;5070611;28;20208;-52
2024/01/23 09:34:19;;;;;;;106.33;45.17;;;;;;;2.52;56.58;63180.72;5070925;28;20188;-52
2024/01/23 09:36:45;;;;;;;115.00;49.53;;;;;;;2.61;54.30;63189.94;5070564;28;20177;-53
2024/01/23 09:39:13;;;;;;;110.10;48.87;;;;;;;2.59;54.41;63185.28;5070811;28;20208;-54
2024/01/23 09:41:49;;;;;;;118.17;49.00;;;;;;;2.27;54.45;63156.06;5070481;28;20646;-54
2024/01/23 09:44:15;;;;;;;96.90;44.87;;;;;;;2.29;53.33;63155.75;5052766;28;20189;-57
2024/01/23 09:46:43;;;;;;;114.10;48.10;;;;;;;2.40;54.43;63167.69;5052235;28;20196;-53
2024/01/23 09:49:09;;;;;;;119.87;50.60;;;;;;;2.45;54.75;63173.66;5070647;28;20236;-54
2024/01/23 09:51:37;;;;;;;123.90;49.47;;;;;;;2.95;52.44;63229.88;5070444;28;20662;-54
2024/01/23 09:54:03;;;;;;;120.50;50.53;;;;;;;3.36;52.85;63269.41;5070609;28;20630;-55
2024/01/23 09:56:30;;;;;;;114.03;50.50;;;;;;;3.54;50.88;63287.88;5052518;28;20534;-60
2024/01/23 09:58:57;;;;;;;113.67;48.90;;;;;;;3.71;50.62;63309.41;5070588;28;20234;-54
2024/01/23 10:01:23;;;;;;;112.23;51.40;;;;;;;3.86;50.48;63328.19;5070440;28;20192;-53
2024/01/23 10:03:49;;;;;;;107.03;49.33;;;;;;;3.92;50.64;63332.22;5070262;28;20832;-55
2024/01/23 10:06:15;;;;;;;113.80;47.97;;;;;;;4.29;48.48;63369.41;5070267;28;20192;-55
2024/01/23 10:08:41;;;;;;;122.30;52.93;;;;;;;3.96;48.96;63333.53;5070284;28;20311;-54
2024/01/23 10:11:10;;;;;;;124.10;51.43;;;;;;;4.15;50.30;63356.69;5070176;28;20199;-55
2024/01/23 10:13:39;;;;;;;118.33;51.17;;;;;;;4.73;49.70;63422.25;5070083;28;20249;-57
2024/01/23 10:16:07;;;;;;;111.57;51.40;;;;;;;4.83;48.54;63430.63;5070409;28;20242;-54
2024/01/23 10:18:32;;;;;;;122.70;50.27;;;;;;;4.92;48.41;63440.44;5069933;28;20212;-55
2024/01/23 10:20:58;;;;;;;108.37;49.90;;;;;;;5.02;47.38;63448.81;5070357;28;20643;-54
2024/01/23 10:23:24;;;;;;;109.17;50.70;;;;;;;5.41;47.67;63492.69;5052127;28;20239;-58
2024/01/23 10:25:49;;;;;;;110.90;48.63;;;;;;;5.46;46.30;63498.13;5069957;28;20621;-54
2024/01/23 10:28:15;;;;;;;114.10;50.47;;;;;;;5.48;46.15;63497.78;5069901;28;20236;-54
2024/01/23 10:30:43;;;;;;;112.83;52.03;;;;;;;5.53;47.02;63503.25;5051979;28;20192;-55
2024/01/23 10:33:10;;;;;;;120.03;52.23;;;;;;;5.38;46.91;63486.91;5070293;28;20216;-55
2024/01/23 10:35:36;;;;;;;101.43;48.13;;;;;;;5.19;46.85;63468.72;5069990;28;20198;-54
2024/01/23 10:38:03;;;;;;;105.70;49.57;;;;;;;5.16;47.07;63462.97;5069982;28;20217;-57
2024/01/23 10:40:30;;;;;;;110.97;51.03;;;;;;;5.53;46.73;63508.25;5070117;28;20622;-54
2024/01/23 10:42:56;;;;;;;117.77;51.07;;;;;;;5.98;46.57;63552.25;5069617;28;20212;-55
2024/01/23 10:45:23;;;;;;;109.57;50.50;;;;;;;6.13;46.32;63571.13;5069899;28;20197;-55
2024/01/23 10:47:51;;;;;;;109.47;49.30;;;;;;;6.42;46.57;63604.69;5069686;28;20230;-56
2024/01/23 10:50:20;;;;;;;115.20;51.47;;;;;;;6.49;44.94;63607.28;5051983;28;20203;-55
2024/01/23 10:52:47;;;;;;;107.20;50.07;;;;;;;6.30;45.13;63589.09;5070169;28;20208;-56
2024/01/23 10:55:13;;;;;;;118.77;50.17;;;;;;;6.28;45.25;63582.44;5069560;28;20225;-57
2024/01/23 10:57:44;;;;;;;106.77;50.50;;;;;;;5.92;44.78;63546.28;5051983;28;20208;-55
2024/01/23 11:00:12;;;;;;;104.90;50.30;;;;;;;6.28;45.13;63584.41;5073100;28;20205;-56
2024/01/23 11:02:58;;;;;;;110.93;52.87;;;;;;;6.21;45.57;63579.84;5055190;28;20223;-57
2024/01/23 11:05:51;;;;;;;117.13;51.87;;;;;;;6.23;44.63;63581.47;5073010;28;20204;-56
2024/01/23 11:08:27;;;;;;;105.97;50.90;;;;;;;6.24;44.43;63583.09;5052678;28;20705;-54
2024/01/23 11:11:10;;;;;;;107.90;48.17;;;;;;;6.54;44.01;63615.81;5073082;28;20226;-54
2024/01/23 11:13:44;;;;;;;113.00;53.20;;;;;;;6.52;43.75;63610.56;5073073;28;20218;-56
2024/01/23 11:16:09;;;;;;;112.63;53.00;;;;;;;6.68;43.98;63631.06;5072573;28;20228;-55